SHT15C EGJB-EGLL
Flight info
| Callsign | SHT15C |
|---|---|
| Flight time | N/A |
| Altitude | 19000 |
| Route | ORIST L982 ROXOG |
| Aircraft | A319/M-SDE3FGIJ1KRWXY/LB1 |
Departure
| Time | 2026-04-30 22:23 |
|---|---|
| Airport | Guernsey Airport (EGJB) |
Arrival
| Time | N/A |
|---|---|
| Airport | London Heathrow Airport (EGLL) |
| Time | Latitude | Longitude | Altitude | Speed | Heading |
|---|---|---|---|---|---|
| 2026-04-30 22:02 | 49.43255 | -2.59590 | 333 ft | 0 kts | 178° |
| 2026-04-30 22:15 | 49.43261 | -2.59590 | 334 ft | 2 kts | 178° |
| 2026-04-30 22:15 | 49.43276 | -2.59591 | 334 ft | 2 kts | 178° |
| 2026-04-30 22:16 | 49.43291 | -2.59592 | 334 ft | 2 kts | 178° |
| 2026-04-30 22:16 | 49.43306 | -2.59592 | 334 ft | 2 kts | 178° |
| 2026-04-30 22:17 | 49.43350 | -2.59585 | 334 ft | 2 kts | 217° |
| 2026-04-30 22:17 | 49.43360 | -2.59568 | 334 ft | 2 kts | 244° |
| 2026-04-30 22:17 | 49.43364 | -2.59540 | 335 ft | 0 kts | 267° |
| 2026-04-30 22:19 | 49.43362 | -2.59603 | 333 ft | 8 kts | 267° |
| 2026-04-30 22:20 | 49.43353 | -2.59717 | 331 ft | 12 kts | 256° |
| 2026-04-30 22:20 | 49.43338 | -2.60052 | 324 ft | 19 kts | 266° |
| 2026-04-30 22:20 | 49.43331 | -2.60281 | 315 ft | 23 kts | 268° |
| 2026-04-30 22:21 | 49.43334 | -2.60550 | 305 ft | 26 kts | 282° |
| 2026-04-30 22:21 | 49.43364 | -2.60835 | 300 ft | 27 kts | 271° |
| 2026-04-30 22:21 | 49.43365 | -2.61085 | 299 ft | 9 kts | 291° |
| 2026-04-30 22:21 | 49.43412 | -2.61171 | 298 ft | 12 kts | 325° |
| 2026-04-30 22:22 | 49.43469 | -2.61158 | 297 ft | 7 kts | 83° |
| 2026-04-30 22:22 | 49.43470 | -2.60980 | 297 ft | 43 kts | 87° |
| 2026-04-30 22:22 | 49.43497 | -2.60112 | 321 ft | 114 kts | 87° |
| 2026-04-30 22:22 | 49.43562 | -2.58703 | 605 ft | 140 kts | 87° |
| 2026-04-30 22:23 | 49.43612 | -2.57219 | 1173 ft | 141 kts | 91° |
| 2026-04-30 22:23 | 49.43641 | -2.55776 | 1830 ft | 134 kts | 91° |
| 2026-04-30 22:23 | 49.43666 | -2.54339 | 2321 ft | 139 kts | 92° |
| 2026-04-30 22:23 | 49.43695 | -2.52788 | 2642 ft | 154 kts | 91° |
| 2026-04-30 22:24 | 49.43738 | -2.51048 | 2985 ft | 172 kts | 88° |
| 2026-04-30 22:24 | 49.44208 | -2.49265 | 3298 ft | 201 kts | 49° |
| 2026-04-30 22:24 | 49.45510 | -2.48217 | 3703 ft | 227 kts | 14° |
| 2026-04-30 22:24 | 49.47082 | -2.47732 | 3997 ft | 233 kts | 14° |
| 2026-04-30 22:25 | 49.48682 | -2.47177 | 4036 ft | 241 kts | 15° |
| 2026-04-30 22:25 | 49.50409 | -2.46531 | 4043 ft | 266 kts | 15° |
| 2026-04-30 22:25 | 49.52229 | -2.45840 | 4038 ft | 274 kts | 15° |
| 2026-04-30 22:25 | 49.54089 | -2.45133 | 4033 ft | 275 kts | 15° |
| 2026-04-30 22:26 | 49.57804 | -2.43717 | 4019 ft | 275 kts | 15° |
| 2026-04-30 22:26 | 49.59668 | -2.43006 | 4020 ft | 275 kts | 15° |
| 2026-04-30 22:26 | 49.61529 | -2.42295 | 4018 ft | 275 kts | 15° |
| 2026-04-30 22:27 | 49.63377 | -2.41588 | 4021 ft | 275 kts | 15° |
| 2026-04-30 22:27 | 49.65233 | -2.40877 | 4023 ft | 275 kts | 15° |
| 2026-04-30 22:27 | 49.68947 | -2.39440 | 4019 ft | 275 kts | 18° |
| 2026-04-30 22:28 | 49.71959 | -2.36067 | 4024 ft | 269 kts | 52° |
| 2026-04-30 22:28 | 49.73150 | -2.33871 | 4021 ft | 268 kts | 53° |
| 2026-04-30 22:29 | 49.76721 | -2.27239 | 4017 ft | 268 kts | 53° |
| 2026-04-30 22:29 | 49.77927 | -2.25025 | 4015 ft | 268 kts | 53° |
| 2026-04-30 22:30 | 49.82740 | -2.16225 | 4017 ft | 268 kts | 53° |
| 2026-04-30 22:31 | 49.86355 | -2.09605 | 4014 ft | 268 kts | 53° |
| 2026-04-30 22:32 | 49.89968 | -2.02975 | 4012 ft | 268 kts | 53° |
| 2026-04-30 22:32 | 49.92374 | -1.98550 | 4011 ft | 268 kts | 53° |
| 2026-04-30 22:33 | 49.95966 | -1.91931 | 4014 ft | 268 kts | 53° |
| 2026-04-30 22:33 | 49.98370 | -1.87490 | 4014 ft | 268 kts | 53° |
| 2026-04-30 22:34 | 50.02856 | -1.82133 | 4746 ft | 286 kts | 29° |
| 2026-04-30 22:35 | 50.06333 | -1.79442 | 6997 ft | 285 kts | 28° |
| 2026-04-30 22:36 | 50.13419 | -1.73327 | 10561 ft | 301 kts | 40° |
| 2026-04-30 22:36 | 50.15087 | -1.71243 | 11100 ft | 315 kts | 43° |
| 2026-04-30 22:37 | 50.20235 | -1.64515 | 13370 ft | 329 kts | 44° |
| 2026-04-30 22:37 | 50.21989 | -1.62231 | 14116 ft | 332 kts | 44° |
| 2026-04-30 22:37 | 50.25583 | -1.57674 | 15574 ft | 340 kts | 38° |
| 2026-04-30 22:38 | 50.29930 | -1.54490 | 16972 ft | 353 kts | 21° |
| 2026-04-30 22:38 | 50.34684 | -1.52205 | 18278 ft | 361 kts | 20° |
| 2026-04-30 22:39 | 50.37078 | -1.51061 | 18795 ft | 364 kts | 20° |
| 2026-04-30 22:39 | 50.44348 | -1.47523 | 19030 ft | 364 kts | 21° |
| 2026-04-30 22:40 | 50.51623 | -1.43924 | 19045 ft | 364 kts | 22° |
| 2026-04-30 22:41 | 50.58463 | -1.38917 | 19045 ft | 359 kts | 32° |
| 2026-04-30 22:41 | 50.62830 | -1.35130 | 19051 ft | 359 kts | 32° |
| 2026-04-30 22:42 | 50.71556 | -1.27591 | 19045 ft | 359 kts | 33° |
| 2026-04-30 22:43 | 50.75960 | -1.23757 | 18282 ft | 365 kts | 34° |
| 2026-04-30 22:43 | 50.80221 | -1.19478 | 17301 ft | 363 kts | 37° |
| 2026-04-30 22:44 | 50.84400 | -1.15155 | 16447 ft | 359 kts | 37° |
| 2026-04-30 22:45 | 50.92670 | -1.06588 | 14738 ft | 352 kts | 37° |
| 2026-04-30 22:45 | 50.96736 | -1.02365 | 13912 ft | 349 kts | 37° |
| 2026-04-30 22:46 | 51.00653 | -0.97933 | 13085 ft | 342 kts | 45° |
| 2026-04-30 22:47 | 51.06780 | -0.87338 | 11957 ft | 324 kts | 52° |
| 2026-04-30 22:47 | 51.09747 | -0.82021 | 11165 ft | 323 kts | 51° |
| 2026-04-30 22:48 | 51.12735 | -0.76672 | 10365 ft | 321 kts | 51° |
| 2026-04-30 22:49 | 51.17003 | -0.69035 | 9731 ft | 299 kts | 51° |
| 2026-04-30 22:49 | 51.21085 | -0.61674 | 8741 ft | 293 kts | 51° |
| 2026-04-30 22:50 | 51.26387 | -0.52070 | 7523 ft | 281 kts | 51° |
| 2026-04-30 22:51 | 51.28900 | -0.47509 | 7257 ft | 263 kts | 51° |
| 2026-04-30 22:51 | 51.31099 | -0.43198 | 7146 ft | 234 kts | 71° |
| 2026-04-30 22:52 | 51.31234 | -0.40813 | 7152 ft | 211 kts | 105° |
| 2026-04-30 22:52 | 51.30405 | -0.36362 | 7172 ft | 209 kts | 110° |
| 2026-04-30 22:53 | 51.28391 | -0.33400 | 7182 ft | 207 kts | 171° |
| 2026-04-30 22:53 | 51.25790 | -0.35103 | 7183 ft | 220 kts | 233° |
| 2026-04-30 22:53 | 51.25304 | -0.37475 | 7184 ft | 238 kts | 269° |
| 2026-04-30 22:54 | 51.27205 | -0.41876 | 7194 ft | 259 kts | 329° |
| 2026-04-30 22:55 | 51.31792 | -0.46395 | 7167 ft | 258 kts | 309° |
| 2026-04-30 22:55 | 51.32835 | -0.51684 | 7183 ft | 251 kts | 265° |
| 2026-04-30 22:56 | 51.33151 | -0.57204 | 7178 ft | 253 kts | 282° |
| 2026-04-30 22:56 | 51.34639 | -0.65275 | 7169 ft | 252 kts | 285° |
| 2026-04-30 22:57 | 51.35717 | -0.70573 | 6647 ft | 251 kts | 286° |
| 2026-04-30 22:57 | 51.36821 | -0.75859 | 6069 ft | 250 kts | 291° |
| 2026-04-30 22:58 | 51.39263 | -0.79593 | 5470 ft | 250 kts | 347° |
| 2026-04-30 22:59 | 51.44330 | -0.78819 | 4576 ft | 242 kts | 32° |
| 2026-04-30 22:59 | 51.47108 | -0.72928 | 3641 ft | 208 kts | 61° |